AirNav   Everest Fuels
 
 1348 users online  

85KY Deer Run Airpark
New Castle, Kentucky, USA

GOING TO NEW CASTLE?


FAA INFORMATION EFFECTIVE 21 MAY 2020

Location

FAA Identifier: 85KY
Lat/Long: 38-28-13.0000N 085-08-19.0000W
38-28.216667N 085-08.316667W
38.4702778,-85.1386111
(estimated)
Elevation: 890 ft. / 271.3 m (surveyed)
Variation: 02W (1985)
From city: 3 miles NE of NEW CASTLE, KY
Time zone: UTC -4 (UTC -5 during Standard Time)
Zip code: 40011

Airport Operations

Airport use: Private use. Permission required prior to landing
Activation date: 03/1988
Control tower: no
ARTCC: INDIANAPOLIS CENTER
FSS: LOUISVILLE FLIGHT SERVICE STATION
Attendance: IREG
Wind indicator: yes
Segmented circle: no

Nearby radio navigation aids

VOR radial/distance  VOR name  Freq  Var
FFTr331/(20.4)FRANKFORT VOR109.4003W
IIUr042/30.2LOUISVILLE VORTAC114.8001E
CVGr216/38.6CINCINNATI VORTAC117.3004W

Airport Services

Runway Information

Runway 14/32

Dimensions: 3100 x 60 ft. / 945 x 18 m
Surface: turf
Runway edge markings: RED CONES THLDS & EDGE.
RUNWAY 14  RUNWAY 32
Traffic pattern: leftleft
Obstructions: none14 ft. pline, marked, 300 ft. from runway

Airport Ownership and Management from official FAA records

Ownership: Privately-owned
Owner: DEER RUN AIRPARK OWNERS ASSN
2680 DRENNON RD
NEW CASTLE, KY 40050
Phone 502-845-2216
ADDTL PHONE 502-706-0108
Manager: WILLIAM G GEIGER
2680 DRENNON RD
NEW CASTLE, KY 40050
Phone 502-845-2216

Airport Operational Statistics

Aircraft based on the field: 9
Single engine airplanes: 9
    

Additional Remarks

FOR CD CTC LOUISVILLE APCH AT 502-375-7499

Instrument Procedures

There are no published instrument procedures at 85KY.

Some nearby airports with instrument procedures:

KFFT - Capital City Airport (20 nm SE)
KIMS - Madison Municipal Airport (23 nm NW)
KLOU - Bowman Field Airport (29 nm SW)
KJVY - Clark Regional Airport (29 nm W)
KSDF - Louisville Muhammad Ali International Airport (33 nm SW)
 
Loc | Ops | Rwys | IFR | FBO | Links
Com | Nav | Svcs | Stats | Notes
Area around 85KY (Deer Run Airpark)
 
Road maps at: MapQuest Bing Google
 
Aerial photo
No photo
 
Sectional chart

 
Airport distance calculator
Flying to Deer Run Airpark? Find the distance to fly.

From to 85KY

Sunrise and sunset
Times for 02-Jun-2020
 Local
(UTC-4)
 Zulu
(UTC)
Morning civil twilight05:4709:47
Sunrise06:1910:19
Sunset20:5900:59
Evening civil twilight21:3001:30

Current date and time
Zulu (UTC)  02-Jun-2020 14:36:56
Local (UTC-4)  02-Jun-2020 10:36:56
 
METAR
KFFT 
21nm SE 
021353Z AUTO 24007KT 10SM CLR 24/14 A3012 RMK AO2 SLP192 T02440139
KIMS 
23nm NW 
021356Z AUTO 23007KT 10SM CLR 24/12 A3013 RMK AO1
KJVY 
29nm W 
021415Z AUTO 21006KT 10SM CLR 25/14 A3010 RMK AO2 T02530143
KLOU 
29nm SW 
021353Z 23009KT 10SM CLR 26/13 A3011 RMK AO2 SLP191 T02560133
KSDF 
33nm SW 
021356Z 22008KT 10SM FEW070 FEW140 FEW250 26/13 A3011 RMK AO2 SLP192 T02610133
K27K 
36nm SE 
021415Z AUTO 24006KT 10SM CLR 23/14 A3013 RMK AO1
KLEX 
36nm SE 
021354Z 25007KT 10SM CLR 23/15 A3014 RMK AO2 SLP199 T02330150 $
TAF
KSDF 
33nm SW 
021120Z 0212/0318 19006KT P6SM BKN200 FM021400 21010KT P6SM BKN200 FM021600 23012G19KT P6SM SCT100 FM030000 23008KT P6SM SCT250
KLEX 
36nm SE 
021120Z 0212/0312 19006KT P6SM BKN200 FM021330 22010KT P6SM SCT250 FM021500 23013G20KT P6SM FEW040 SCT100 FM022300 22009KT P6SM BKN250
NOTAMs
Click for the latest NOTAMs
NOTAMs are issued by the DoD/FAA and will open in a separate window not controlled by AirNav.

 

 
 

Would you like to see your business listed on this page?

 If your business provides an interesting product or service to pilots, flight crews, aircraft, or users of the Deer Run Airpark, you should consider listing it here.  To start the listing process, click on the button below
 
Add a business
 

Other Pages about Deer Run Airpark

Update a link
 
Copyright © AirNav, LLC. All rights reserved. Privacy Policy  Contact